createdAt,value
2022-11-03T00:02:19.041Z,14.32
2022-11-03T00:04:45.816Z,11.75
2022-11-03T00:07:12.504Z,11.23
2022-11-03T00:09:39.148Z,7.57
2022-11-03T00:12:05.940Z,9.63
2022-11-03T00:14:32.632Z,11.43
2022-11-03T00:16:59.293Z,9.70
2022-11-03T00:19:26.009Z,12.85
2022-11-03T00:21:52.859Z,8.10
2022-11-03T00:24:19.707Z,7.00
2022-11-03T00:26:46.433Z,11.15
2022-11-03T00:29:14.030Z,9.50
2022-11-03T00:31:40.721Z,8.88
2022-11-03T00:34:07.444Z,7.65
2022-11-03T00:36:34.095Z,7.25
2022-11-03T00:39:00.852Z,6.63
2022-11-03T00:41:27.562Z,7.85
2022-11-03T00:43:54.267Z,5.75
2022-11-03T00:46:21.024Z,8.63
2022-11-03T00:48:47.680Z,11.57
2022-11-03T00:51:14.412Z,6.78
2022-11-03T00:53:41.129Z,7.15
2022-11-03T00:56:07.864Z,6.22
2022-11-03T00:58:34.564Z,3.80
2022-11-03T01:01:01.392Z,5.90
2022-11-03T01:03:28.164Z,5.63
2022-11-03T01:06:13.783Z,5.43
2022-11-03T01:08:40.531Z,6.70
2022-11-03T01:11:26.067Z,4.88
2022-11-03T01:13:52.766Z,4.97
2022-11-03T01:16:19.450Z,4.72
2022-11-03T01:18:46.177Z,4.10
2022-11-03T01:21:12.858Z,2.53
2022-11-03T01:23:39.500Z,4.03
2022-11-03T01:26:06.253Z,2.47
2022-11-03T01:28:32.947Z,3.08
2022-11-03T01:30:59.636Z,3.63
2022-11-03T01:33:26.279Z,4.53
2022-11-03T01:35:52.939Z,3.97
2022-11-03T01:38:19.636Z,1.83
2022-11-03T01:40:46.359Z,2.92
2022-11-03T01:43:13.013Z,3.38
2022-11-03T01:45:39.723Z,3.00
2022-11-03T01:48:06.375Z,4.18
2022-11-03T01:50:33.041Z,2.13
2022-11-03T01:53:00.073Z,3.50
2022-11-03T01:55:26.760Z,2.83
2022-11-03T01:57:53.455Z,4.88
2022-11-03T02:00:20.170Z,3.22
2022-11-03T02:02:46.873Z,5.93
2022-11-03T02:05:17.693Z,2.60
2022-11-03T02:07:44.523Z,2.53
2022-11-03T02:10:11.250Z,2.55
2022-11-03T02:12:37.911Z,2.53
2022-11-03T02:15:04.603Z,4.07
2022-11-03T02:17:31.342Z,3.28
2022-11-03T02:19:57.999Z,3.75
2022-11-03T02:22:24.721Z,3.17
2022-11-03T02:24:54.072Z,2.78
2022-11-03T02:27:21.170Z,4.32
2022-11-03T02:29:47.973Z,5.07
2022-11-03T02:32:14.651Z,4.88
2022-11-03T02:34:41.392Z,6.43
2022-11-03T02:37:08.085Z,3.90
2022-11-03T02:39:34.987Z,6.85
2022-11-03T02:42:01.658Z,5.72
2022-11-03T02:44:28.335Z,3.97
2022-11-03T02:46:54.982Z,4.80
2022-11-03T02:49:21.690Z,4.53
2022-11-03T02:51:48.376Z,4.93
2022-11-03T02:54:15.090Z,5.53
2022-11-03T02:56:41.750Z,5.35
2022-11-03T02:59:08.612Z,6.10
2022-11-03T03:01:39.858Z,7.93
2022-11-03T03:04:06.942Z,8.13
2022-11-03T03:06:34.092Z,9.32
2022-11-03T03:09:00.808Z,9.90
2022-11-03T03:11:39.708Z,11.95
2022-11-03T03:14:06.717Z,8.27
2022-11-03T03:16:33.395Z,9.60
2022-11-03T03:19:00.108Z,10.57
2022-11-03T03:21:26.810Z,9.98
2022-11-03T03:23:53.500Z,12.90
2022-11-03T03:26:20.212Z,9.25
2022-11-03T03:28:46.899Z,14.27
2022-11-03T03:31:13.579Z,13.40
2022-11-03T03:33:43.405Z,18.63
2022-11-03T03:36:13.341Z,12.80
2022-11-03T03:38:40.017Z,13.75
2022-11-03T03:41:10.557Z,14.45
2022-11-03T03:43:37.628Z,11.85
2022-11-03T03:46:04.276Z,12.25
2022-11-03T03:48:31.055Z,9.77
2022-11-03T03:50:57.714Z,9.25
2022-11-03T03:53:24.393Z,10.07
2022-11-03T03:55:51.087Z,11.00
2022-11-03T03:58:17.802Z,9.10
2022-11-03T04:00:44.577Z,10.25
2022-11-03T04:03:11.351Z,9.63
2022-11-03T04:05:38.015Z,7.70
2022-11-03T04:08:04.955Z,13.50
2022-11-03T04:10:31.743Z,6.88
2022-11-03T04:13:30.930Z,6.70
2022-11-03T04:16:16.107Z,7.80
2022-11-03T04:19:01.625Z,8.32
2022-11-03T04:21:47.019Z,8.93
2022-11-03T04:24:13.766Z,8.63
2022-11-03T04:26:40.496Z,7.13
2022-11-03T04:29:07.146Z,10.77
2022-11-03T04:31:33.842Z,8.60
2022-11-03T04:34:00.490Z,8.68
2022-11-03T04:36:27.166Z,7.07
2022-11-03T04:38:53.898Z,7.28
2022-11-03T04:41:20.682Z,7.70
2022-11-03T04:43:47.501Z,8.10
2022-11-03T04:46:14.283Z,8.10
2022-11-03T04:48:40.966Z,7.05
2022-11-03T04:51:07.677Z,7.22
2022-11-03T04:53:34.410Z,7.82
2022-11-03T04:56:06.988Z,6.88
2022-11-03T04:58:34.642Z,5.82
2022-11-03T05:01:01.517Z,6.43
2022-11-03T05:03:28.270Z,7.75
2022-11-03T05:05:54.978Z,7.50
2022-11-03T05:08:21.727Z,7.65
2022-11-03T05:10:48.398Z,6.22
2022-11-03T05:13:15.074Z,5.65
2022-11-03T05:15:41.727Z,5.85
2022-11-03T05:18:08.389Z,6.80
2022-11-03T05:20:36.342Z,7.30
2022-11-03T05:23:03.410Z,9.95
2022-11-03T05:25:30.270Z,9.35
2022-11-03T05:27:57.019Z,7.68
2022-11-03T05:30:23.689Z,7.43
2022-11-03T05:32:50.395Z,8.38
2022-11-03T05:35:17.047Z,6.20
2022-11-03T05:37:43.752Z,7.00
2022-11-03T05:40:10.418Z,7.57
2022-11-03T05:42:37.159Z,10.77
2022-11-03T05:45:03.952Z,12.43
2022-11-03T05:47:30.626Z,8.25
2022-11-03T05:49:57.289Z,7.65
2022-11-03T05:52:23.978Z,9.20
2022-11-03T05:54:50.655Z,10.93
2022-11-03T05:57:17.527Z,12.32
2022-11-03T05:59:44.222Z,11.95
2022-11-03T06:02:10.961Z,9.30
2022-11-03T06:04:37.871Z,11.45
2022-11-03T06:07:04.524Z,16.35
2022-11-03T06:09:31.210Z,12.88
2022-11-03T06:11:57.890Z,13.43
2022-11-03T06:14:24.940Z,19.67
2022-11-03T06:16:51.752Z,14.38
2022-11-03T06:19:20.102Z,15.35
2022-11-03T06:21:46.911Z,11.85
2022-11-03T06:24:13.619Z,20.65
2022-11-03T06:26:40.370Z,17.85
2022-11-03T06:29:07.198Z,7.85
2022-11-03T06:31:33.984Z,4.88
2022-11-03T06:34:00.692Z,5.97
2022-11-03T06:36:27.425Z,2.85
2022-11-03T06:38:54.140Z,3.53
2022-11-03T06:41:20.845Z,4.20
2022-11-03T06:43:47.502Z,1.55
2022-11-03T06:46:14.191Z,2.05
2022-11-03T06:48:40.851Z,3.65
2022-11-03T06:51:07.512Z,4.75
2022-11-03T06:53:34.238Z,4.85
2022-11-03T06:56:01.037Z,6.47
2022-11-03T06:58:27.867Z,7.05
2022-11-03T07:00:58.909Z,8.95
2022-11-03T07:03:31.457Z,7.13
2022-11-03T07:05:58.229Z,8.10
2022-11-03T07:08:24.911Z,8.30
2022-11-03T07:10:52.013Z,7.53
2022-11-03T07:13:18.648Z,7.28
2022-11-03T07:15:45.444Z,7.47
2022-11-03T07:18:12.116Z,5.07
2022-11-03T07:20:38.811Z,9.27
2022-11-03T07:23:05.879Z,8.82
2022-11-03T07:25:32.599Z,7.35
2022-11-03T07:27:59.293Z,8.38
2022-11-03T07:30:25.953Z,7.97
2022-11-03T07:32:52.716Z,7.13
2022-11-03T07:35:19.402Z,7.13
2022-11-03T07:37:46.152Z,8.82
2022-11-03T07:40:12.803Z,6.15
2022-11-03T07:42:39.515Z,6.78
2022-11-03T07:45:07.208Z,6.03
2022-11-03T07:47:33.881Z,6.72
2022-11-03T07:50:00.601Z,6.28
2022-11-03T07:52:27.342Z,9.10
2022-11-03T07:54:54.979Z,7.18
2022-11-03T07:57:21.646Z,5.45
2022-11-03T07:59:48.332Z,7.82
2022-11-03T08:02:15.181Z,12.57
2022-11-03T08:04:41.885Z,9.25
2022-11-03T08:07:08.615Z,13.07
2022-11-03T08:09:35.326Z,6.07
2022-11-03T08:12:02.093Z,6.03
2022-11-03T08:14:28.788Z,7.45
2022-11-03T08:16:55.565Z,6.05
2022-11-03T08:19:22.251Z,4.68
2022-11-03T08:21:48.988Z,6.45
2022-11-03T08:24:15.775Z,5.45
2022-11-03T08:26:42.540Z,6.38
2022-11-03T08:29:09.997Z,4.05
2022-11-03T08:31:36.710Z,5.85
2022-11-03T08:34:03.652Z,5.95
2022-11-03T08:36:30.423Z,2.88
2022-11-03T08:38:57.113Z,4.97
2022-11-03T08:41:23.837Z,5.05
2022-11-03T08:43:50.637Z,4.50
2022-11-03T08:46:18.319Z,5.40
2022-11-03T08:48:45.342Z,4.93
2022-11-03T08:51:13.979Z,5.93
2022-11-03T08:53:42.769Z,6.32
2022-11-03T08:56:12.525Z,5.68
2022-11-03T08:58:40.883Z,5.50
2022-11-03T09:01:08.170Z,7.88
2022-11-03T09:03:35.014Z,4.38
2022-11-03T09:06:01.747Z,13.48
2022-11-03T09:11:15.104Z,7.07
2022-11-03T09:13:41.765Z,5.45
2022-11-03T09:16:08.479Z,6.40
2022-11-03T09:18:35.165Z,6.43
2022-11-03T09:21:01.922Z,5.25
2022-11-03T09:23:28.631Z,5.18
2022-11-03T09:25:55.366Z,5.43
2022-11-03T09:28:22.022Z,16.33
2022-11-03T09:30:48.731Z,7.18
2022-11-03T09:33:15.506Z,5.55
2022-11-03T09:35:42.156Z,4.60
2022-11-03T09:38:09.066Z,7.13
2022-11-03T09:40:36.167Z,4.55
2022-11-03T09:43:03.053Z,3.50
2022-11-03T09:45:29.816Z,4.25
2022-11-03T09:47:56.637Z,3.45
2022-11-03T09:50:23.467Z,9.50
2022-11-03T09:52:52.447Z,20.58
2022-11-03T09:55:19.103Z,6.10
2022-11-03T09:57:45.799Z,4.00
2022-11-03T10:00:12.449Z,6.55
2022-11-03T10:02:43.187Z,4.55
2022-11-03T10:05:11.268Z,6.70
2022-11-03T10:07:38.247Z,5.63
2022-11-03T10:10:04.889Z,7.25
2022-11-03T10:12:31.645Z,7.82
2022-11-03T10:14:58.299Z,6.90
2022-11-03T10:17:25.069Z,46.70
2022-11-03T10:19:51.743Z,11.98
2022-11-03T10:22:18.443Z,8.32
2022-11-03T10:24:45.140Z,6.75
2022-11-03T10:27:11.839Z,6.28
2022-11-03T10:29:39.983Z,5.18
2022-11-03T10:32:08.015Z,19.35
2022-11-03T10:34:35.125Z,7.88
2022-11-03T10:37:01.803Z,7.00
2022-11-03T10:39:28.487Z,6.53
2022-11-03T10:41:55.152Z,5.60
2022-11-03T10:44:21.992Z,5.97
2022-11-03T10:46:51.222Z,5.22
2022-11-03T10:49:19.455Z,6.15
2022-11-03T10:51:46.493Z,6.82
2022-11-03T10:54:13.324Z,5.35
2022-11-03T10:56:40.025Z,7.45
2022-11-03T10:59:06.679Z,4.18
2022-11-03T11:01:33.635Z,4.60
2022-11-03T11:04:00.539Z,8.00
2022-11-03T11:06:27.239Z,7.88
2022-11-03T11:09:00.106Z,5.28
2022-11-03T11:11:26.963Z,4.00
2022-11-03T11:13:53.634Z,6.18
2022-11-03T11:16:20.372Z,5.50
2022-11-03T11:18:47.071Z,4.05
2022-11-03T11:21:13.823Z,5.43
2022-11-03T11:23:41.678Z,3.78
2022-11-03T11:26:08.535Z,5.28
2022-11-03T11:28:35.497Z,5.88
2022-11-03T11:31:02.560Z,3.28
2022-11-03T11:33:29.755Z,4.07
2022-11-03T11:35:59.070Z,4.10
2022-11-03T11:38:29.326Z,5.53
2022-11-03T11:40:55.985Z,5.85
2022-11-03T11:43:22.712Z,4.82
2022-11-03T11:45:49.357Z,2.97
2022-11-03T11:48:18.834Z,4.18
2022-11-03T11:50:46.132Z,5.30
2022-11-03T11:53:12.837Z,4.32
2022-11-03T11:55:39.649Z,4.47
2022-11-03T11:58:06.377Z,3.05
2022-11-03T12:00:33.091Z,4.05
2022-11-03T12:02:59.847Z,5.45
2022-11-03T12:05:27.860Z,5.70
2022-11-03T12:07:54.906Z,4.90
2022-11-03T12:10:22.810Z,6.88
2022-11-03T12:12:49.601Z,5.47
2022-11-03T12:15:16.315Z,5.07
2022-11-03T12:17:43.073Z,5.03
2022-11-03T12:20:09.815Z,3.97
2022-11-03T12:22:36.764Z,5.93
2022-11-03T12:25:04.730Z,3.90
2022-11-03T12:27:31.785Z,4.78
2022-11-03T12:29:59.425Z,4.18
2022-11-03T12:32:34.063Z,3.20
2022-11-03T12:35:01.484Z,2.50
2022-11-03T12:37:28.225Z,3.45
2022-11-03T12:39:54.976Z,8.57
2022-11-03T12:42:22.659Z,4.15
2022-11-03T12:44:49.369Z,5.07
2022-11-03T12:47:16.112Z,2.65
2022-11-03T12:49:42.783Z,4.57
2022-11-03T12:52:10.646Z,6.10
2022-11-03T12:54:37.435Z,3.78
2022-11-03T12:57:04.154Z,8.80
2022-11-03T12:59:30.816Z,5.32
2022-11-03T13:01:57.602Z,9.07
2022-11-03T13:04:24.357Z,6.22
2022-11-03T13:06:51.291Z,11.98
2022-11-03T13:09:17.998Z,4.90
2022-11-03T13:12:03.499Z,3.35
2022-11-03T13:14:30.270Z,5.47
2022-11-03T13:16:56.996Z,3.72
2022-11-03T13:19:23.703Z,5.32
2022-11-03T13:21:50.464Z,4.38
2022-11-03T13:24:17.342Z,10.30
2022-11-03T13:26:44.017Z,3.05
2022-11-03T13:29:11.004Z,2.83
2022-11-03T13:31:37.723Z,4.10
2022-11-03T13:34:04.358Z,3.95
2022-11-03T13:36:31.528Z,3.20
2022-11-03T13:38:58.324Z,4.68
2022-11-03T13:41:24.984Z,9.52
2022-11-03T13:43:51.685Z,5.43
2022-11-03T13:46:18.546Z,5.15
2022-11-03T13:51:31.917Z,4.55
2022-11-03T13:59:31.974Z,7.25
2022-11-03T14:04:45.449Z,8.20
2022-11-03T14:07:12.200Z,3.92
2022-11-03T14:09:39.047Z,5.70
2022-11-03T14:12:24.553Z,11.88
2022-11-03T14:14:51.264Z,4.93
2022-11-03T14:17:17.928Z,4.55
2022-11-03T14:19:48.847Z,5.20
2022-11-03T14:22:19.323Z,5.15
2022-11-03T14:24:46.069Z,4.95
2022-11-03T14:27:13.019Z,5.50
2022-11-03T14:29:39.756Z,6.38
2022-11-03T14:32:06.504Z,4.18
2022-11-03T14:34:33.287Z,6.00
2022-11-03T14:37:00.185Z,7.47
2022-11-03T14:39:26.950Z,6.38
2022-11-03T14:42:05.788Z,11.85
2022-11-03T14:44:32.921Z,4.93
2022-11-03T14:47:01.497Z,3.72
2022-11-03T14:49:28.154Z,6.82
2022-11-03T14:51:56.859Z,11.88
2022-11-03T14:54:23.577Z,7.40
2022-11-03T14:56:50.432Z,8.23
2022-11-03T14:59:17.144Z,7.03
2022-11-03T15:01:43.896Z,4.55
2022-11-03T15:04:11.856Z,5.50
2022-11-03T15:06:38.535Z,6.55
2022-11-03T15:09:05.358Z,4.65
2022-11-03T15:11:32.055Z,5.38
2022-11-03T15:13:58.742Z,5.30
2022-11-03T15:16:25.442Z,5.13
2022-11-03T15:18:52.127Z,7.63
2022-11-03T15:21:18.841Z,11.43
2022-11-03T15:26:32.307Z,9.50
2022-11-03T15:28:58.971Z,8.23
2022-11-03T15:31:25.732Z,6.82
2022-11-03T15:33:52.444Z,6.40
2022-11-03T15:36:19.167Z,5.65
2022-11-03T15:38:45.864Z,4.13
2022-11-03T15:41:15.802Z,3.67
2022-11-03T15:43:42.596Z,3.97
2022-11-03T15:46:10.382Z,5.28
2022-11-03T15:48:37.140Z,5.15
2022-11-03T15:51:03.928Z,3.90
2022-11-03T15:53:30.667Z,5.25
2022-11-03T15:55:57.388Z,5.80
2022-11-03T15:58:24.076Z,7.15
2022-11-03T16:00:50.906Z,6.55
2022-11-03T16:03:17.893Z,5.72
2022-11-03T16:05:44.667Z,7.70
2022-11-03T16:08:11.508Z,6.65
2022-11-03T16:10:38.375Z,5.97
2022-11-03T16:13:05.131Z,8.32
2022-11-03T16:15:31.844Z,5.93
2022-11-03T16:18:02.757Z,5.97
2022-11-03T16:20:29.587Z,4.60
2022-11-03T16:22:56.240Z,6.43
2022-11-03T16:25:22.955Z,6.20
2022-11-03T16:27:49.632Z,5.90
2022-11-03T16:30:16.309Z,7.28
2022-11-03T16:32:43.033Z,11.18
2022-11-03T16:35:10.065Z,5.18
2022-11-03T16:37:37.498Z,5.60
2022-11-03T16:40:04.232Z,5.78
2022-11-03T16:42:38.121Z,7.45
2022-11-03T16:45:05.025Z,7.22
2022-11-03T16:47:31.738Z,6.38
2022-11-03T16:49:58.482Z,7.43
2022-11-03T16:52:25.265Z,5.82
2022-11-03T16:54:52.032Z,6.90
2022-11-03T16:57:19.211Z,7.45
2022-11-03T16:59:45.917Z,7.45
2022-11-03T17:02:16.476Z,8.52
2022-11-03T17:04:43.860Z,5.30
2022-11-03T17:07:10.697Z,5.75
2022-11-03T17:09:37.453Z,7.57
2022-11-03T17:12:04.135Z,4.55
2022-11-03T17:14:30.901Z,8.90
2022-11-03T17:17:00.503Z,8.68
2022-11-03T17:19:27.234Z,7.25
2022-11-03T17:21:53.901Z,5.35
2022-11-03T17:24:20.585Z,5.97
2022-11-03T17:26:47.288Z,6.20
2022-11-03T17:29:13.991Z,7.78
2022-11-03T17:31:40.667Z,6.40
2022-11-03T17:34:07.372Z,5.28
2022-11-03T17:36:34.068Z,8.32
2022-11-03T17:39:00.821Z,7.72
2022-11-03T17:41:27.490Z,5.00
2022-11-03T17:43:54.166Z,8.90
2022-11-03T17:46:20.888Z,6.22
2022-11-03T17:48:47.949Z,6.60
2022-11-03T17:51:14.783Z,4.93
2022-11-03T17:53:41.467Z,8.23
2022-11-03T17:56:29.106Z,9.35
2022-11-03T17:58:55.745Z,13.07
2022-11-03T18:01:22.580Z,13.13
2022-11-03T18:03:49.435Z,11.73
2022-11-03T18:06:16.379Z,11.52
2022-11-03T18:08:45.028Z,8.02
2022-11-03T18:11:31.712Z,11.10
2022-11-03T18:13:58.467Z,8.30
2022-11-03T18:16:25.219Z,9.35
2022-11-03T18:18:51.936Z,13.63
2022-11-03T18:21:18.761Z,14.38
2022-11-03T18:23:45.450Z,11.75
2022-11-03T18:26:12.113Z,15.85
2022-11-03T18:28:38.837Z,61.67
2022-11-03T18:31:05.516Z,87.65
2022-11-03T18:33:32.285Z,87.30
2022-11-03T18:35:59.010Z,69.00
2022-11-03T18:38:25.712Z,58.83
2022-11-03T18:40:52.478Z,51.08
2022-11-03T18:43:19.156Z,75.50
2022-11-03T18:45:45.871Z,69.47
2022-11-03T18:48:19.630Z,35.55
2022-11-03T18:50:46.378Z,22.08
2022-11-03T18:53:13.696Z,27.55
2022-11-03T18:55:41.184Z,32.45
2022-11-03T18:58:08.261Z,29.80
2022-11-03T19:00:35.245Z,26.00
2022-11-03T19:03:01.940Z,16.85
2022-11-03T19:05:29.783Z,16.10
2022-11-03T19:07:56.467Z,17.73
2022-11-03T19:10:24.221Z,14.73
2022-11-03T19:12:50.927Z,17.48
2022-11-03T19:15:17.763Z,15.82
2022-11-03T19:17:44.484Z,14.07
2022-11-03T19:20:11.153Z,13.18
2022-11-03T19:22:37.871Z,11.32
2022-11-03T19:25:04.556Z,13.68
2022-11-03T19:27:31.243Z,12.15
2022-11-03T19:29:57.944Z,15.45
2022-11-03T19:32:24.649Z,11.55
2022-11-03T19:34:51.382Z,10.45
2022-11-03T19:37:18.074Z,10.60
2022-11-03T19:39:44.760Z,19.67
2022-11-03T19:42:30.254Z,36.88
2022-11-03T19:44:58.154Z,37.88
2022-11-03T19:47:28.281Z,26.88
2022-11-03T19:49:58.391Z,21.25
2022-11-03T19:52:25.078Z,17.00
2022-11-03T19:54:51.733Z,14.75
2022-11-03T19:57:18.435Z,11.73
2022-11-03T19:59:45.246Z,14.80
2022-11-03T20:02:12.111Z,13.65
2022-11-03T20:04:38.963Z,19.58
2022-11-03T20:07:05.705Z,29.02
2022-11-03T20:09:32.448Z,21.48
2022-11-03T20:11:59.132Z,20.55
2022-11-03T20:14:26.161Z,12.75
2022-11-03T20:16:52.849Z,35.95
2022-11-03T20:19:19.644Z,41.17
2022-11-03T20:21:46.358Z,28.90
2022-11-03T20:24:13.029Z,20.05
2022-11-03T20:26:39.746Z,18.23
2022-11-03T20:29:06.468Z,13.65
2022-11-03T20:31:33.161Z,16.17
2022-11-03T20:33:59.826Z,12.32
2022-11-03T20:36:27.285Z,13.85
2022-11-03T20:38:59.098Z,10.40
2022-11-03T20:41:25.811Z,10.88
2022-11-03T20:43:55.033Z,15.70
2022-11-03T20:46:21.721Z,10.70
2022-11-03T20:48:48.484Z,15.23
2022-11-03T20:51:15.304Z,15.25
2022-11-03T20:53:42.012Z,16.27
2022-11-03T20:56:08.683Z,18.35
2022-11-03T20:58:35.341Z,13.45
2022-11-03T21:01:02.133Z,18.50
2022-11-03T21:03:53.643Z,16.73
2022-11-03T21:06:16.626Z,15.95
2022-11-03T21:08:43.480Z,22.20
2022-11-03T21:11:27.378Z,12.52
2022-11-03T21:13:54.484Z,18.10
2022-11-03T21:16:40.018Z,10.88
2022-11-03T21:19:25.492Z,12.18
2022-11-03T21:21:52.194Z,14.00
2022-11-03T21:24:18.882Z,7.82
2022-11-03T21:26:46.387Z,12.70
2022-11-03T21:29:14.874Z,14.65
2022-11-03T21:31:46.444Z,9.90
2022-11-03T21:34:13.120Z,8.88
2022-11-03T21:36:39.756Z,9.43
2022-11-03T21:39:06.522Z,10.75
2022-11-03T21:41:51.613Z,7.57
2022-11-03T21:44:18.371Z,9.80
2022-11-03T21:46:46.665Z,6.50
2022-11-03T21:49:32.068Z,6.72
2022-11-03T21:51:58.740Z,6.40
2022-11-03T21:54:25.443Z,6.00
2022-11-03T21:56:52.131Z,8.00
2022-11-03T21:59:18.861Z,6.93
2022-11-03T22:01:45.644Z,4.55
2022-11-03T22:04:12.410Z,4.00
2022-11-03T22:06:39.199Z,5.45
2022-11-03T22:09:05.925Z,3.08
2022-11-03T22:11:32.667Z,3.05
2022-11-03T22:13:59.367Z,6.32
2022-11-03T22:16:38.235Z,5.18
2022-11-03T22:19:23.447Z,5.57
2022-11-03T22:22:09.089Z,4.45
2022-11-03T22:24:54.368Z,5.25
2022-11-03T22:27:21.195Z,4.70
2022-11-03T22:30:06.304Z,7.75
2022-11-03T22:32:33.053Z,5.10
2022-11-03T22:35:18.485Z,5.13
2022-11-03T22:37:45.246Z,4.63
2022-11-03T22:40:30.593Z,6.95
2022-11-03T22:43:16.060Z,4.18
2022-11-03T22:45:52.094Z,5.43
2022-11-03T22:48:18.833Z,6.85
2022-11-03T22:50:45.745Z,6.57
2022-11-03T22:53:30.936Z,4.78
2022-11-03T22:55:57.679Z,6.57
2022-11-03T22:58:29.347Z,5.50
2022-11-03T23:00:57.201Z,4.80
2022-11-03T23:03:23.963Z,4.57
2022-11-03T23:05:50.641Z,6.60
2022-11-03T23:08:17.393Z,5.72
2022-11-03T23:10:44.202Z,5.40
2022-11-03T23:13:11.302Z,7.50
2022-11-03T23:15:43.557Z,5.80
2022-11-03T23:18:28.823Z,9.60
2022-11-03T23:21:07.743Z,12.95
2022-11-03T23:23:53.120Z,10.95
2022-11-03T23:26:19.934Z,9.15
2022-11-03T23:28:46.707Z,9.75
2022-11-03T23:31:13.493Z,6.55
2022-11-03T23:33:40.289Z,8.70
2022-11-03T23:36:07.170Z,10.23
2022-11-03T23:38:34.331Z,13.43
2022-11-03T23:41:00.981Z,10.65
2022-11-03T23:43:27.701Z,9.23
2022-11-03T23:46:13.201Z,8.95
2022-11-03T23:48:46.009Z,8.27
2022-11-03T23:51:13.100Z,8.77
2022-11-03T23:53:39.751Z,13.38
2022-11-03T23:56:35.781Z,9.88
2022-11-03T23:59:02.478Z,9.48
